Time;durP1;ratioP1;P1;durP2;ratioP2;P2;SDS_P1;SDS_P2;PMS_P1;PMS_P2;Temp;Humidity;BMP_temperature;BMP_pressure;BME280_temperature;BME280_humidity;BME280_pressure;Samples;Min_cycle;Max_cycle;Signal;HPM_P1;HPM_P2
2022/01/09 00:00:07;;;;;;;23.50;2.78;;;;;;;;;;5037855;28;20351;-55
2022/01/09 00:02:32;;;;;;;34.17;2.97;;;;;;;;;;5037314;28;20534;-51
2022/01/09 00:04:58;;;;;;;15.60;3.08;;;;;;;;;;5040482;28;20054;-54
2022/01/09 00:07:23;;;;;;;34.40;2.38;;;;;;;;;;5040558;28;20029;-54
2022/01/09 00:09:49;;;;;;;35.40;5.15;;;;;;;;;;5033824;28;20183;-54
2022/01/09 00:12:14;;;;;;;8.32;1.92;;;;;;;;;;5039026;28;20029;-54
2022/01/09 00:14:40;;;;;;;21.92;3.85;;;;;;;;;;5043008;28;20573;-54
2022/01/09 00:17:05;;;;;;;14.90;2.53;;;;;;;;;;5036357;28;20024;-54
2022/01/09 00:19:31;;;;;;;11.50;1.73;;;;;;;;;;5042529;28;20185;-53
2022/01/09 00:21:56;;;;;;;49.53;5.00;;;;;;;;;;5041780;28;20068;-54
2022/01/09 00:24:23;;;;;;;24.45;2.97;;;;;;;;;;5038317;28;20095;-54
2022/01/09 00:26:48;;;;;;;16.23;2.63;;;;;;;;;;5039311;28;20063;-53
2022/01/09 00:29:14;;;;;;;23.08;3.15;;;;;;;;;;5042143;28;20025;-55
2022/01/09 00:31:40;;;;;;;28.08;2.17;;;;;;;;;;5042071;28;20037;-54
2022/01/09 00:34:06;;;;;;;8.60;2.28;;;;;;;;;;5052864;28;20044;-54
2022/01/09 00:36:31;;;;;;;15.25;2.85;;;;;;;;;;5037921;28;20024;-54
2022/01/09 00:38:57;;;;;;;21.75;2.90;;;;;;;;;;5036455;28;20075;-55
2022/01/09 00:41:23;;;;;;;23.48;2.85;;;;;;;;;;5043242;28;20492;-54
2022/01/09 00:43:50;;;;;;;9.93;3.30;;;;;;;;;;5041880;28;20060;-49
2022/01/09 00:46:15;;;;;;;15.15;3.28;;;;;;;;;;5040489;28;20048;-52
2022/01/09 00:48:41;;;;;;;9.82;1.70;;;;;;;;;;5043977;28;20036;-54
2022/01/09 00:51:06;;;;;;;18.38;2.53;;;;;;;;;;5022318;28;20033;-50
2022/01/09 00:53:32;;;;;;;15.70;1.98;;;;;;;;;;5041617;28;20025;-52
2022/01/09 00:55:57;;;;;;;23.63;2.78;;;;;;;;;;5042961;28;20033;-55
2022/01/09 00:58:23;;;;;;;8.35;1.73;;;;;;;;;;5038754;28;20279;-52
2022/01/09 01:00:48;;;;;;;13.80;2.22;;;;;;;;;;5039923;28;20060;-54
2022/01/09 01:03:14;;;;;;;14.75;3.53;;;;;;;;;;5043647;28;20032;-55
2022/01/09 01:05:39;;;;;;;17.42;2.60;;;;;;;;;;5039687;28;20329;-55
2022/01/09 01:08:05;;;;;;;20.95;2.45;;;;;;;;;;5038824;28;20083;-54
2022/01/09 01:10:30;;;;;;;26.35;3.47;;;;;;;;;;5039850;28;20021;-54
2022/01/09 01:12:56;;;;;;;9.73;2.35;;;;;;;;;;5041112;28;20097;-53
2022/01/09 01:15:21;;;;;;;18.95;2.38;;;;;;;;;;5039951;28;20511;-54
2022/01/09 01:17:47;;;;;;;11.52;1.65;;;;;;;;;;5044086;28;20045;-52
2022/01/09 01:20:13;;;;;;;7.35;1.15;;;;;;;;;;5041825;28;20028;-54
2022/01/09 01:22:40;;;;;;;12.77;2.10;;;;;;;;;;5035312;28;20405;-55
2022/01/09 01:25:06;;;;;;;15.50;1.88;;;;;;;;;;5032830;28;20459;-55
2022/01/09 01:27:32;;;;;;;16.42;2.15;;;;;;;;;;5040906;28;20539;-54
2022/01/09 01:29:57;;;;;;;11.43;1.73;;;;;;;;;;5041474;28;20033;-56
2022/01/09 01:32:24;;;;;;;6.63;2.25;;;;;;;;;;5036902;28;20040;-54
2022/01/09 01:34:49;;;;;;;10.82;2.53;;;;;;;;;;5049933;28;20133;-53
2022/01/09 01:37:15;;;;;;;10.05;2.15;;;;;;;;;;5038262;28;20582;-53
2022/01/09 01:39:40;;;;;;;10.02;1.38;;;;;;;;;;5056575;28;20482;-53
2022/01/09 01:42:06;;;;;;;7.70;1.42;;;;;;;;;;5070349;28;20043;-53
2022/01/09 01:44:46;;;;;;;10.02;2.10;;;;;;;;;;5036680;28;20523;-54
2022/01/09 01:47:14;;;;;;;12.65;1.92;;;;;;;;;;5039773;28;20029;-54
2022/01/09 01:49:39;;;;;;;15.05;1.77;;;;;;;;;;5039946;28;20021;-50
2022/01/09 01:52:05;;;;;;;12.00;1.95;;;;;;;;;;5043672;28;20033;-53
2022/01/09 01:54:32;;;;;;;9.57;1.73;;;;;;;;;;5040443;28;20669;-53
2022/01/09 01:56:58;;;;;;;20.98;2.38;;;;;;;;;;5036735;28;20083;-52
2022/01/09 01:59:24;;;;;;;8.18;2.25;;;;;;;;;;5042282;28;20017;-52
2022/01/09 02:01:49;;;;;;;10.80;1.83;;;;;;;;;;5035729;28;20042;-54
2022/01/09 02:04:15;;;;;;;6.05;1.42;;;;;;;;;;5038433;28;20124;-53
2022/01/09 02:06:40;;;;;;;12.55;1.58;;;;;;;;;;5040821;28;20391;-53
2022/01/09 02:09:06;;;;;;;9.77;1.70;;;;;;;;;;5036486;28;20033;-51
2022/01/09 02:11:33;;;;;;;20.13;2.88;;;;;;;;;;5038558;28;20415;-55
2022/01/09 02:13:59;;;;;;;14.52;2.17;;;;;;;;;;5038048;28;20032;-54
2022/01/09 02:16:26;;;;;;;19.95;2.40;;;;;;;;;;5036908;28;20466;-53
2022/01/09 02:18:51;;;;;;;17.60;3.50;;;;;;;;;;5043931;28;20064;-51
2022/01/09 02:21:17;;;;;;;13.43;1.63;;;;;;;;;;5039045;28;20127;-54
2022/01/09 02:23:45;;;;;;;26.30;2.65;;;;;;;;;;5033127;28;20040;-54
2022/01/09 02:26:19;;;;;;;18.05;2.83;;;;;;;;;;5042663;28;20025;-55
2022/01/09 02:28:47;;;;;;;18.70;3.20;;;;;;;;;;5042831;28;20036;-53
2022/01/09 02:31:13;;;;;;;18.92;1.63;;;;;;;;;;5039320;28;20603;-55
2022/01/09 02:33:39;;;;;;;7.88;1.90;;;;;;;;;;5037866;28;20090;-55
2022/01/09 02:36:04;;;;;;;13.73;1.30;;;;;;;;;;5039495;28;20060;-54
2022/01/09 02:38:30;;;;;;;18.42;2.10;;;;;;;;;;5034437;28;20127;-55
2022/01/09 02:40:55;;;;;;;20.85;2.35;;;;;;;;;;5040295;28;20063;-54
2022/01/09 02:43:23;;;;;;;20.27;2.20;;;;;;;;;;5038706;28;20032;-54
2022/01/09 02:45:56;;;;;;;11.13;1.73;;;;;;;;;;5038713;28;20249;-54
2022/01/09 02:48:22;;;;;;;17.15;2.50;;;;;;;;;;5033379;28;20068;-54
2022/01/09 02:51:00;;;;;;;20.67;1.85;;;;;;;;;;5041518;28;20029;-54
2022/01/09 02:53:29;;;;;;;9.30;1.77;;;;;;;;;;5043394;28;20048;-53
2022/01/09 02:55:55;;;;;;;20.38;1.80;;;;;;;;;;5042558;28;20029;-53
2022/01/09 02:58:22;;;;;;;12.10;2.05;;;;;;;;;;5048695;28;20039;-54
2022/01/09 03:00:47;;;;;;;12.18;1.95;;;;;;;;;;5035169;28;20227;-51
2022/01/09 03:03:13;;;;;;;21.83;1.95;;;;;;;;;;5045734;28;20243;-50
2022/01/09 03:05:38;;;;;;;23.98;2.50;;;;;;;;;;5045796;28;20089;-54
2022/01/09 03:08:04;;;;;;;25.25;1.80;;;;;;;;;;5040203;28;20185;-53
2022/01/09 03:10:30;;;;;;;11.65;1.42;;;;;;;;;;5042636;28;20545;-52
2022/01/09 03:12:57;;;;;;;10.57;1.45;;;;;;;;;;5046502;28;20060;-52
2022/01/09 03:15:24;;;;;;;7.97;1.60;;;;;;;;;;5044515;28;20029;-54
2022/01/09 03:17:50;;;;;;;16.60;1.80;;;;;;;;;;5043224;28;20105;-52
2022/01/09 03:20:18;;;;;;;7.28;1.70;;;;;;;;;;5038106;28;20105;-53
2022/01/09 03:22:44;;;;;;;3.58;0.68;;;;;;;;;;5037508;28;20060;-54
2022/01/09 03:25:10;;;;;;;12.20;1.52;;;;;;;;;;5041096;28;20025;-53
2022/01/09 03:27:38;;;;;;;8.00;1.42;;;;;;;;;;5040443;28;20032;-54
2022/01/09 03:30:09;;;;;;;8.45;1.00;;;;;;;;;;5045129;28;20029;-54
2022/01/09 03:32:36;;;;;;;13.65;1.65;;;;;;;;;;5039160;28;20025;-55
2022/01/09 03:35:04;;;;;;;11.27;1.70;;;;;;;;;;5043750;28;20027;-53
2022/01/09 03:37:29;;;;;;;11.25;1.60;;;;;;;;;;5045959;28;20446;-55
2022/01/09 03:39:55;;;;;;;4.50;0.98;;;;;;;;;;5043167;28;20045;-54
2022/01/09 03:42:20;;;;;;;12.80;1.48;;;;;;;;;;5040143;28;20095;-54
2022/01/09 03:44:46;;;;;;;6.75;1.63;;;;;;;;;;5042894;28;20043;-54
2022/01/09 03:47:11;;;;;;;9.60;1.55;;;;;;;;;;5043446;28;20400;-54
2022/01/09 03:49:37;;;;;;;8.93;1.48;;;;;;;;;;5044251;28;20283;-54
2022/01/09 03:52:03;;;;;;;11.98;1.92;;;;;;;;;;5041336;28;20036;-54
2022/01/09 03:54:28;;;;;;;16.00;1.38;;;;;;;;;;5039608;28;20032;-55
2022/01/09 03:56:54;;;;;;;12.65;1.35;;;;;;;;;;5040442;28;20036;-55
2022/01/09 03:59:20;;;;;;;11.20;1.67;;;;;;;;;;5043259;28;20071;-53
2022/01/09 04:01:46;;;;;;;14.57;1.83;;;;;;;;;;5040540;28;20354;-54
2022/01/09 04:04:12;;;;;;;13.35;1.63;;;;;;;;;;5045956;28;20040;-53
2022/01/09 04:06:44;;;;;;;31.38;2.30;;;;;;;;;;5037277;28;20407;-54
2022/01/09 04:09:18;;;;;;;5.03;1.40;;;;;;;;;;5041091;28;20152;-54
2022/01/09 04:11:44;;;;;;;9.30;1.67;;;;;;;;;;5043443;28;20071;-53
2022/01/09 04:14:09;;;;;;;7.43;1.10;;;;;;;;;;5042835;28;20033;-51
2022/01/09 04:16:35;;;;;;;7.72;1.35;;;;;;;;;;5042922;28;20029;-54
2022/01/09 04:19:00;;;;;;;17.60;1.48;;;;;;;;;;5043256;28;20102;-53
2022/01/09 04:21:26;;;;;;;25.40;2.00;;;;;;;;;;5041407;28;20028;-54
2022/01/09 04:23:51;;;;;;;11.35;1.95;;;;;;;;;;5038947;28;20517;-55
2022/01/09 04:26:18;;;;;;;14.68;1.63;;;;;;;;;;5037675;28;20028;-55
2022/01/09 04:28:44;;;;;;;11.85;2.22;;;;;;;;;;5038210;28;20079;-55
2022/01/09 04:31:10;;;;;;;10.90;1.58;;;;;;;;;;5055611;28;20059;-55
2022/01/09 04:33:35;;;;;;;15.07;1.95;;;;;;;;;;5045263;28;20033;-55
2022/01/09 04:36:01;;;;;;;14.05;1.73;;;;;;;;;;5046263;28;20128;-54
2022/01/09 04:38:26;;;;;;;13.75;1.95;;;;;;;;;;5039951;28;20061;-53
2022/01/09 04:40:52;;;;;;;15.80;3.10;;;;;;;;;;5039511;28;20090;-54
2022/01/09 04:43:18;;;;;;;14.77;2.22;;;;;;;;;;5043260;28;20487;-54
2022/01/09 04:45:45;;;;;;;7.00;1.67;;;;;;;;;;5039629;28;20052;-55
2022/01/09 04:48:12;;;;;;;25.23;2.65;;;;;;;;;;5034910;28;20021;-54
2022/01/09 04:50:39;;;;;;;25.90;2.60;;;;;;;;;;5041113;28;20032;-54
2022/01/09 04:53:08;;;;;;;18.85;2.00;;;;;;;;;;5079239;28;20021;-55
2022/01/09 04:55:39;;;;;;;12.32;2.25;;;;;;;;;;5041821;28;20021;-54
2022/01/09 04:58:05;;;;;;;22.17;2.33;;;;;;;;;;5041952;28;20161;-54
2022/01/09 05:00:31;;;;;;;25.90;2.38;;;;;;;;;;5036622;28;20098;-54
2022/01/09 05:02:57;;;;;;;14.70;3.22;;;;;;;;;;5042607;28;20121;-54
2022/01/09 05:05:23;;;;;;;25.98;2.85;;;;;;;;;;5038389;28;20108;-54
2022/01/09 05:07:49;;;;;;;27.50;2.95;;;;;;;;;;5039555;28;20034;-53
2022/01/09 05:10:15;;;;;;;26.05;3.58;;;;;;;;;;5037698;28;20395;-54
2022/01/09 05:12:40;;;;;;;11.63;2.67;;;;;;;;;;5038528;28;20033;-54
2022/01/09 05:15:07;;;;;;;25.73;2.97;;;;;;;;;;5038273;28;20519;-53
2022/01/09 05:17:34;;;;;;;8.68;1.65;;;;;;;;;;5035480;28;20033;-53
2022/01/09 05:19:59;;;;;;;28.48;2.30;;;;;;;;;;5040433;28;20040;-51
2022/01/09 05:22:26;;;;;;;27.25;3.33;;;;;;;;;;5041302;28;20078;-55
2022/01/09 05:24:51;;;;;;;36.88;3.33;;;;;;;;;;5039254;28;20033;-55
2022/01/09 05:27:17;;;;;;;22.90;2.65;;;;;;;;;;5038848;28;20541;-55
2022/01/09 05:29:43;;;;;;;22.17;2.90;;;;;;;;;;5032998;28;20040;-55
2022/01/09 05:32:09;;;;;;;14.18;2.67;;;;;;;;;;5040135;28;20028;-55
2022/01/09 05:34:35;;;;;;;24.38;3.13;;;;;;;;;;5036622;28;20025;-55
2022/01/09 05:37:00;;;;;;;14.32;1.83;;;;;;;;;;5037740;28;20037;-56
2022/01/09 05:39:26;;;;;;;21.52;3.35;;;;;;;;;;5041884;28;20420;-54
2022/01/09 05:41:51;;;;;;;26.40;2.42;;;;;;;;;;5041217;28;20503;-54
2022/01/09 05:44:19;;;;;;;21.35;4.13;;;;;;;;;;5042284;28;20140;-55
2022/01/09 05:46:45;;;;;;;21.25;2.70;;;;;;;;;;5036184;28;20497;-54
2022/01/09 05:49:10;;;;;;;23.83;2.47;;;;;;;;;;5037922;28;20055;-55
2022/01/09 05:51:36;;;;;;;19.13;1.92;;;;;;;;;;5039381;28;20029;-55
2022/01/09 05:54:02;;;;;;;10.82;2.45;;;;;;;;;;5040772;28;20041;-54
2022/01/09 05:56:27;;;;;;;21.27;2.08;;;;;;;;;;5042877;28;20056;-55
2022/01/09 05:58:53;;;;;;;19.42;2.33;;;;;;;;;;5035431;28;20072;-55
2022/01/09 06:01:18;;;;;;;20.20;2.00;;;;;;;;;;5035672;28;20022;-56
2022/01/09 06:03:44;;;;;;;24.65;2.78;;;;;;;;;;5040399;28;20037;-53
2022/01/09 06:06:09;;;;;;;24.60;4.20;;;;;;;;;;5037111;28;20111;-54
2022/01/09 06:08:35;;;;;;;35.83;2.80;;;;;;;;;;5041280;28;20037;-55
2022/01/09 06:11:00;;;;;;;22.98;2.58;;;;;;;;;;5041576;28;20710;-55
2022/01/09 06:13:26;;;;;;;28.08;3.33;;;;;;;;;;5039401;28;20047;-54
2022/01/09 06:15:51;;;;;;;25.80;3.13;;;;;;;;;;5041072;28;20127;-55
2022/01/09 06:18:18;;;;;;;21.92;3.13;;;;;;;;;;5042346;28;20503;-55
2022/01/09 06:20:44;;;;;;;17.88;1.75;;;;;;;;;;5043438;28;20060;-56
2022/01/09 06:23:09;;;;;;;17.90;1.92;;;;;;;;;;5041311;28;20033;-55
2022/01/09 06:25:35;;;;;;;27.27;3.00;;;;;;;;;;5043947;28;20075;-55
2022/01/09 06:28:00;;;;;;;12.75;1.63;;;;;;;;;;5043057;28;20043;-54
2022/01/09 06:30:26;;;;;;;41.85;3.53;;;;;;;;;;5038932;28;20029;-54
2022/01/09 06:32:51;;;;;;;20.40;1.67;;;;;;;;;;5039151;28;20143;-55
2022/01/09 06:35:17;;;;;;;19.73;1.80;;;;;;;;;;5043844;28;20029;-55
2022/01/09 06:37:42;;;;;;;20.63;3.25;;;;;;;;;;5036886;28;20522;-56
2022/01/09 06:40:09;;;;;;;20.00;1.70;;;;;;;;;;5043053;28;20079;-55
2022/01/09 06:42:34;;;;;;;39.10;2.83;;;;;;;;;;5043267;28;20033;-55
2022/01/09 06:45:00;;;;;;;26.48;2.92;;;;;;;;;;5044249;28;20067;-54
2022/01/09 06:47:25;;;;;;;22.75;3.20;;;;;;;;;;5042030;28;20034;-55
2022/01/09 06:49:51;;;;;;;43.75;3.45;;;;;;;;;;5044481;28;20044;-54
2022/01/09 06:52:16;;;;;;;27.20;2.65;;;;;;;;;;5040133;28;20539;-54
2022/01/09 06:54:42;;;;;;;26.85;3.63;;;;;;;;;;5044897;28;20029;-55
2022/01/09 06:57:07;;;;;;;22.45;2.75;;;;;;;;;;5041981;28;20479;-54
2022/01/09 06:59:33;;;;;;;41.88;2.92;;;;;;;;;;5040895;28;20656;-55
2022/01/09 07:01:58;;;;;;;24.15;2.55;;;;;;;;;;5039191;28;22962;-54
2022/01/09 07:04:24;;;;;;;12.77;1.95;;;;;;;;;;5042775;28;20373;-55
2022/01/09 07:06:49;;;;;;;11.15;2.13;;;;;;;;;;5041041;28;20163;-56
2022/01/09 07:09:15;;;;;;;17.30;2.13;;;;;;;;;;5041015;28;20040;-54
2022/01/09 07:11:40;;;;;;;19.48;2.92;;;;;;;;;;5041407;28;20067;-55
2022/01/09 07:14:06;;;;;;;27.25;2.53;;;;;;;;;;5040272;28;20537;-55
2022/01/09 07:16:32;;;;;;;38.08;3.10;;;;;;;;;;5040492;28;20464;-55
2022/01/09 07:18:57;;;;;;;25.75;2.97;;;;;;;;;;5039087;28;20559;-55
2022/01/09 07:21:23;;;;;;;36.40;4.82;;;;;;;;;;5034878;28;20538;-55
2022/01/09 07:23:49;;;;;;;25.77;3.00;;;;;;;;;;5044268;28;20082;-54
2022/01/09 07:26:14;;;;;;;23.13;2.67;;;;;;;;;;5041846;28;20499;-53
2022/01/09 07:28:40;;;;;;;26.35;3.13;;;;;;;;;;5039579;28;20078;-54
2022/01/09 07:31:05;;;;;;;15.35;1.90;;;;;;;;;;5037300;28;20028;-55
2022/01/09 07:33:31;;;;;;;14.65;1.80;;;;;;;;;;5035784;28;20653;-52
2022/01/09 07:35:57;;;;;;;22.92;2.55;;;;;;;;;;5043224;28;20048;-55
2022/01/09 07:38:23;;;;;;;29.23;2.72;;;;;;;;;;5041424;28;20053;-54
2022/01/09 07:40:49;;;;;;;23.05;2.67;;;;;;;;;;5040864;28;20041;-55
2022/01/09 07:43:15;;;;;;;26.40;2.75;;;;;;;;;;5042599;28;20082;-55
2022/01/09 07:45:40;;;;;;;30.85;2.72;;;;;;;;;;5037240;28;20412;-56
2022/01/09 07:48:06;;;;;;;26.88;2.80;;;;;;;;;;5039033;28;20057;-55
2022/01/09 07:50:32;;;;;;;22.23;1.85;;;;;;;;;;5039027;28;20065;-55
2022/01/09 07:52:58;;;;;;;17.75;1.92;;;;;;;;;;5036667;28;20041;-54
2022/01/09 07:55:24;;;;;;;25.60;2.97;;;;;;;;;;5041653;28;20029;-55
2022/01/09 07:57:50;;;;;;;29.83;2.83;;;;;;;;;;5042894;28;20811;-55
2022/01/09 08:00:18;;;;;;;28.67;4.35;;;;;;;;;;5040833;28;20032;-56
2022/01/09 08:02:44;;;;;;;16.20;1.73;;;;;;;;;;5039534;28;20029;-53
2022/01/09 08:05:12;;;;;;;13.15;2.75;;;;;;;;;;5039765;28;20395;-54
2022/01/09 08:07:38;;;;;;;27.23;2.97;;;;;;;;;;5037406;28;20021;-56
2022/01/09 08:10:04;;;;;;;23.17;2.53;;;;;;;;;;5041248;28;20087;-55
2022/01/09 08:12:30;;;;;;;25.10;2.92;;;;;;;;;;5036714;28;20116;-55
2022/01/09 08:14:55;;;;;;;15.35;3.00;;;;;;;;;;5038044;28;20040;-54
2022/01/09 08:17:21;;;;;;;24.38;2.95;;;;;;;;;;5042286;28;20037;-54
2022/01/09 08:19:47;;;;;;;27.38;2.78;;;;;;;;;;5041709;28;20115;-50
2022/01/09 08:22:13;;;;;;;16.85;2.58;;;;;;;;;;5036731;28;20064;-50
2022/01/09 08:24:39;;;;;;;24.50;2.30;;;;;;;;;;5041670;28;20037;-55
2022/01/09 08:27:05;;;;;;;26.55;2.05;;;;;;;;;;5041601;28;20047;-55
2022/01/09 08:29:31;;;;;;;11.85;2.00;;;;;;;;;;5035978;28;20041;-57
2022/01/09 08:31:56;;;;;;;16.17;2.05;;;;;;;;;;5036741;28;20052;-55
2022/01/09 08:34:22;;;;;;;17.58;1.90;;;;;;;;;;5037197;28;20065;-54
2022/01/09 08:36:47;;;;;;;29.35;3.60;;;;;;;;;;5037074;28;20040;-56
2022/01/09 08:39:13;;;;;;;35.33;3.53;;;;;;;;;;5038541;28;20053;-55
2022/01/09 08:41:39;;;;;;;23.35;2.40;;;;;;;;;;5046780;28;20048;-54
2022/01/09 08:44:07;;;;;;;25.52;2.58;;;;;;;;;;5032010;28;20046;-54
2022/01/09 08:46:34;;;;;;;13.50;1.90;;;;;;;;;;5037911;28;20033;-55
2022/01/09 08:49:01;;;;;;;23.50;2.20;;;;;;;;;;5038464;28;20052;-54
2022/01/09 08:51:27;;;;;;;19.10;1.90;;;;;;;;;;5040080;28;20587;-54
2022/01/09 08:53:53;;;;;;;30.55;2.92;;;;;;;;;;5037857;28;20037;-54
2022/01/09 08:56:23;;;;;;;26.17;2.72;;;;;;;;;;5070736;28;20033;-55
2022/01/09 08:58:50;;;;;;;19.33;2.15;;;;;;;;;;5034666;28;20047;-55
2022/01/09 09:01:16;;;;;;;28.50;2.50;;;;;;;;;;5038660;28;20043;-55
2022/01/09 09:03:42;;;;;;;25.38;2.63;;;;;;;;;;5039496;28;20618;-51
2022/01/09 09:06:10;;;;;;;23.30;2.67;;;;;;;;;;5042511;28;20044;-53
2022/01/09 09:08:36;;;;;;;19.45;3.78;;;;;;;;;;5040756;28;20542;-56
2022/01/09 09:11:03;;;;;;;25.58;3.85;;;;;;;;;;5040043;28;20523;-52
2022/01/09 09:13:28;;;;;;;49.33;6.85;;;;;;;;;;5037828;28;20035;-53
2022/01/09 09:15:54;;;;;;;17.55;2.72;;;;;;;;;;5042069;28;20037;-53
2022/01/09 09:18:19;;;;;;;20.52;3.42;;;;;;;;;;5031421;28;20084;-53
2022/01/09 09:20:45;;;;;;;16.63;2.17;;;;;;;;;;5041341;28;20036;-52
2022/01/09 09:23:11;;;;;;;20.95;2.40;;;;;;;;;;5043486;28;20434;-53
2022/01/09 09:25:37;;;;;;;17.98;2.58;;;;;;;;;;5040556;28;20025;-53
2022/01/09 09:28:03;;;;;;;27.90;2.67;;;;;;;;;;5038621;28;20145;-53
2022/01/09 09:30:28;;;;;;;12.35;1.92;;;;;;;;;;5033770;28;20162;-49
2022/01/09 09:32:54;;;;;;;19.38;2.47;;;;;;;;;;5037736;28;20560;-50
2022/01/09 09:35:20;;;;;;;26.58;3.38;;;;;;;;;;5035207;28;20021;-53
2022/01/09 09:37:45;;;;;;;26.88;2.55;;;;;;;;;;5034959;28;20615;-51
2022/01/09 09:40:11;;;;;;;21.95;3.53;;;;;;;;;;5034944;28;20049;-51
2022/01/09 09:42:37;;;;;;;14.27;2.00;;;;;;;;;;5031608;28;20029;-53
2022/01/09 09:45:07;;;;;;;15.32;1.65;;;;;;;;;;5036041;28;20029;-51
2022/01/09 09:47:34;;;;;;;15.05;2.25;;;;;;;;;;5031568;28;20044;-53
2022/01/09 09:50:00;;;;;;;22.73;3.67;;;;;;;;;;5037703;28;20017;-51
2022/01/09 09:52:26;;;;;;;33.42;3.78;;;;;;;;;;5046221;28;20028;-50
2022/01/09 09:54:53;;;;;;;26.10;3.28;;;;;;;;;;5037314;28;20037;-53
2022/01/09 09:57:19;;;;;;;20.63;2.88;;;;;;;;;;5031340;28;20041;-53
2022/01/09 09:59:45;;;;;;;21.60;2.35;;;;;;;;;;5042374;28;20032;-49
2022/01/09 10:02:16;;;;;;;24.45;3.00;;;;;;;;;;5042265;28;20045;-47
2022/01/09 10:05:04;;;;;;;24.05;3.03;;;;;;;;;;5046534;28;20043;-52
2022/01/09 10:07:32;;;;;;;23.02;2.42;;;;;;;;;;5036930;28;20036;-53
2022/01/09 10:10:10;;;;;;;25.23;2.75;;;;;;;;;;5043594;28;20035;-53
2022/01/09 10:12:37;;;;;;;27.50;2.60;;;;;;;;;;5046850;28;20033;-52
2022/01/09 10:15:07;;;;;;;23.15;2.65;;;;;;;;;;5044721;28;20471;-50
2022/01/09 10:17:33;;;;;;;37.15;2.78;;;;;;;;;;5049352;28;20029;-52
2022/01/09 10:20:19;;;;;;;23.58;2.50;;;;;;;;;;5047245;28;20037;-52
2022/01/09 10:22:53;;;;;;;16.58;1.65;;;;;;;;;;5047298;28;20025;-53
2022/01/09 10:25:25;;;;;;;31.42;4.38;;;;;;;;;;5046948;28;20104;-53
2022/01/09 10:28:17;;;;;;;21.75;2.45;;;;;;;;;;5043995;28;20437;-52
2022/01/09 10:30:51;;;;;;;15.77;2.10;;;;;;;;;;5047385;28;20035;-51
2022/01/09 10:33:26;;;;;;;35.83;3.55;;;;;;;;;;5047084;28;20062;-49
2022/01/09 10:35:52;;;;;;;24.40;2.50;;;;;;;;;;5045852;28;20419;-48
2022/01/09 10:38:27;;;;;;;22.40;3.95;;;;;;;;;;5044552;28;20048;-50
2022/01/09 10:40:57;;;;;;;34.58;3.13;;;;;;;;;;5048932;28;20039;-50
2022/01/09 10:43:25;;;;;;;23.90;3.42;;;;;;;;;;5041910;28;20389;-51
2022/01/09 10:46:00;;;;;;;24.52;2.30;;;;;;;;;;5044337;28;20419;-49
2022/01/09 10:48:32;;;;;;;22.30;2.35;;;;;;;;;;5042437;28;20036;-49
2022/01/09 10:50:59;;;;;;;32.92;3.50;;;;;;;;;;5048422;28;20048;-51
2022/01/09 10:53:32;;;;;;;36.13;3.40;;;;;;;;;;5040762;28;20040;-50
2022/01/09 10:56:24;;;;;;;30.05;4.07;;;;;;;;;;5039672;28;20044;-54
2022/01/09 10:58:57;;;;;;;23.63;3.17;;;;;;;;;;5042264;28;20112;-53
2022/01/09 11:01:32;;;;;;;18.83;3.33;;;;;;;;;;5044374;28;20036;-51
2022/01/09 11:03:59;;;;;;;28.40;3.42;;;;;;;;;;5044348;28;20060;-52
2022/01/09 11:06:28;;;;;;;29.40;2.75;;;;;;;;;;5045440;28;20025;-55
2022/01/09 11:08:56;;;;;;;20.13;2.35;;;;;;;;;;5042510;28;20032;-53
2022/01/09 11:11:30;;;;;;;28.20;3.85;;;;;;;;;;5043773;28;20474;-50
2022/01/09 11:13:57;;;;;;;22.55;3.28;;;;;;;;;;5045508;28;20523;-51
2022/01/09 11:16:41;;;;;;;15.05;3.58;;;;;;;;;;5045484;28;20036;-50
2022/01/09 11:19:16;;;;;;;28.15;4.15;;;;;;;;;;5043447;28;20022;-53
2022/01/09 11:21:47;;;;;;;30.13;3.05;;;;;;;;;;5043732;28;20040;-53
2022/01/09 11:24:31;;;;;;;27.42;4.22;;;;;;;;;;5043751;28;20036;-52
2022/01/09 11:27:03;;;;;;;24.90;2.63;;;;;;;;;;5040703;28;20052;-52
2022/01/09 11:30:03;;;;;;;21.75;2.70;;;;;;;;;;5044034;28;20025;-49
2022/01/09 11:32:59;;;;;;;23.70;2.58;;;;;;;;;;5039804;28;20390;-51
2022/01/09 11:35:38;;;;;;;33.95;3.80;;;;;;;;;;5040504;28;20104;-49
2022/01/09 11:38:16;;;;;;;25.33;2.95;;;;;;;;;;5043173;28;20064;-53
2022/01/09 11:40:41;;;;;;;31.92;3.72;;;;;;;;;;5042933;28;20503;-50
2022/01/09 11:43:14;;;;;;;18.67;3.40;;;;;;;;;;5041147;28;20029;-51
2022/01/09 11:45:40;;;;;;;16.20;2.67;;;;;;;;;;5044408;28;20025;-50
2022/01/09 11:48:06;;;;;;;20.02;2.75;;;;;;;;;;5039272;28;20029;-52
2022/01/09 11:50:33;;;;;;;19.65;3.78;;;;;;;;;;5045493;28;20403;-50
2022/01/09 11:53:00;;;;;;;16.45;1.73;;;;;;;;;;5041854;28;20029;-51
2022/01/09 11:55:41;;;;;;;25.45;3.10;;;;;;;;;;5043010;28;20075;-53
2022/01/09 11:58:09;;;;;;;23.15;3.08;;;;;;;;;;5041683;28;20040;-53
2022/01/09 12:00:37;;;;;;;19.23;3.25;;;;;;;;;;5046247;28;20091;-53
2022/01/09 12:03:27;;;;;;;28.38;3.13;;;;;;;;;;5042016;28;20047;-51
2022/01/09 12:06:06;;;;;;;40.60;5.25;;;;;;;;;;5042675;28;20115;-51
2022/01/09 12:08:53;;;;;;;24.58;3.22;;;;;;;;;;5043652;28;20029;-53
2022/01/09 12:11:19;;;;;;;18.98;2.40;;;;;;;;;;5040343;28;20048;-52
2022/01/09 12:13:47;;;;;;;14.30;2.22;;;;;;;;;;5044482;28;20429;-52
2022/01/09 12:16:46;;;;;;;35.78;4.47;;;;;;;;;;5038719;28;20522;-53
2022/01/09 12:19:11;;;;;;;24.00;3.38;;;;;;;;;;5039612;28;20044;-52
2022/01/09 12:21:37;;;;;;;20.00;3.38;;;;;;;;;;5046386;28;20492;-53
2022/01/09 12:24:35;;;;;;;31.60;2.78;;;;;;;;;;5041567;28;20119;-51
2022/01/09 12:27:35;;;;;;;30.75;4.18;;;;;;;;;;5031299;28;20098;-51
2022/01/09 12:30:03;;;;;;;24.67;3.13;;;;;;;;;;5040605;28;20405;-51
2022/01/09 12:32:38;;;;;;;9.88;2.13;;;;;;;;;;5044236;28;20111;-50
2022/01/09 12:35:18;;;;;;;36.00;3.35;;;;;;;;;;5073869;28;20040;-49
2022/01/09 12:37:47;;;;;;;30.20;4.32;;;;;;;;;;5052002;28;20084;-50
2022/01/09 12:40:18;;;;;;;28.45;3.95;;;;;;;;;;5042339;28;20056;-49
2022/01/09 12:42:52;;;;;;;17.48;4.00;;;;;;;;;;5044135;28;20057;-50
2022/01/09 12:45:31;;;;;;;22.13;3.35;;;;;;;;;;5040942;28;20037;-52
2022/01/09 12:47:57;;;;;;;35.20;3.35;;;;;;;;;;5040166;28;20089;-53
2022/01/09 12:50:39;;;;;;;38.05;4.20;;;;;;;;;;5044979;28;20033;-51
2022/01/09 12:53:21;;;;;;;35.95;4.28;;;;;;;;;;5046106;28;20028;-51
2022/01/09 12:56:06;;;;;;;26.58;3.50;;;;;;;;;;5042261;28;20021;-52
2022/01/09 12:58:48;;;;;;;23.38;3.85;;;;;;;;;;5037090;28;20459;-49
2022/01/09 13:01:13;;;;;;;26.47;4.00;;;;;;;;;;5039331;28;20415;-52
2022/01/09 13:03:47;;;;;;;33.25;3.58;;;;;;;;;;5042725;28;20300;-52
2022/01/09 13:06:16;;;;;;;44.33;3.67;;;;;;;;;;5043425;28;20423;-53
2022/01/09 13:08:47;;;;;;;24.45;2.63;;;;;;;;;;5043898;28;20059;-52
2022/01/09 13:11:18;;;;;;;25.17;3.77;;;;;;;;;;5043962;28;20012;-51
2022/01/09 13:13:47;;;;;;;26.70;3.90;;;;;;;;;;5042267;28;20041;-52
2022/01/09 13:16:28;;;;;;;39.60;3.63;;;;;;;;;;5044620;28;20770;-53
2022/01/09 13:19:00;;;;;;;31.38;4.40;;;;;;;;;;5032786;28;20066;-52
2022/01/09 13:21:28;;;;;;;;;;;;;;;;;;5039530;28;20079;-51
2022/01/09 13:24:09;;;;;;;30.15;3.72;;;;;;;;;;5045336;28;19951;-51
2022/01/09 13:27:04;;;;;;;26.42;4.05;;;;;;;;;;5039670;28;20447;-49
2022/01/09 13:29:35;;;;;;;30.15;3.60;;;;;;;;;;5030962;28;20539;-53
2022/01/09 13:32:03;;;;;;;29.65;3.72;;;;;;;;;;5047261;28;20140;-53
2022/01/09 13:34:29;;;;;;;40.60;4.78;;;;;;;;;;5038469;28;20120;-50
2022/01/09 13:36:57;;;;;;;32.70;4.35;;;;;;;;;;5043294;28;20103;-51
2022/01/09 13:39:26;;;;;;;24.75;3.00;;;;;;;;;;5049545;28;20132;-50
2022/01/09 13:42:00;;;;;;;39.50;6.18;;;;;;;;;;5043323;28;20059;-49
2022/01/09 13:44:27;;;;;;;41.40;5.65;;;;;;;;;;5034822;28;20040;-50
2022/01/09 13:47:04;;;;;;;27.73;4.32;;;;;;;;;;5041400;28;20098;-52
2022/01/09 13:49:31;;;;;;;35.05;4.32;;;;;;;;;;5042388;28;20037;-51
2022/01/09 13:51:58;;;;;;;42.97;5.50;;;;;;;;;;5044566;28;20894;-50
2022/01/09 13:54:27;;;;;;;37.78;4.75;;;;;;;;;;5041442;28;20173;-53
2022/01/09 13:57:06;;;;;;;35.75;5.25;;;;;;;;;;5041675;28;20764;-52
2022/01/09 13:59:49;;;;;;;42.95;4.43;;;;;;;;;;5044008;28;20468;-52
2022/01/09 14:02:18;;;;;;;27.85;3.63;;;;;;;;;;5076402;28;20140;-50
2022/01/09 14:04:45;;;;;;;38.53;5.10;;;;;;;;;;5041758;28;20029;-52
2022/01/09 14:07:16;;;;;;;28.55;3.55;;;;;;;;;;5038800;28;20025;-53
2022/01/09 14:09:52;;;;;;;32.13;4.57;;;;;;;;;;5042287;28;20048;-52
2022/01/09 14:12:21;;;;;;;32.88;3.65;;;;;;;;;;5041350;28;20040;-50
2022/01/09 14:14:48;;;;;;;27.35;4.57;;;;;;;;;;5044877;28;20340;-52
2022/01/09 14:17:22;;;;;;;50.50;4.97;;;;;;;;;;5038966;28;20051;-50
2022/01/09 14:19:48;;;;;;;37.92;5.85;;;;;;;;;;5042072;28;20059;-52
2022/01/09 14:22:13;;;;;;;31.08;4.85;;;;;;;;;;5043114;28;20029;-52
2022/01/09 14:25:10;;;;;;;33.78;3.95;;;;;;;;;;5044029;28;20025;-53
2022/01/09 14:27:39;;;;;;;35.00;4.00;;;;;;;;;;5032889;28;20112;-52
2022/01/09 14:30:29;;;;;;;28.88;4.20;;;;;;;;;;5043090;28;20025;-51
2022/01/09 14:33:18;;;;;;;35.25;4.82;;;;;;;;;;5042505;28;20025;-48
2022/01/09 14:35:54;;;;;;;35.30;4.63;;;;;;;;;;5038894;28;20120;-53
2022/01/09 14:38:26;;;;;;;18.25;3.53;;;;;;;;;;5038460;28;20132;-49